Time;durP1;ratioP1;P1;durP2;ratioP2;P2;SDS_P1;SDS_P2;PMS_P1;PMS_P2;Temp;Humidity;BMP_temperature;BMP_pressure;BME280_temperature;BME280_humidity;BME280_pressure;Samples;Min_cycle;Max_cycle;Signal;HPM_P1;HPM_P2
2021/11/15 00:00:16;;;;;;;38.83;17.20;;;;;;;5.07;100.00;101929.25;5017382;28;20169;-76
2021/11/15 00:02:43;;;;;;;42.43;15.80;;;;;;;5.08;100.00;101924.66;5017254;28;20186;-73
2021/11/15 00:05:09;;;;;;;56.90;19.50;;;;;;;5.05;100.00;101930.53;5016823;28;20243;-73
2021/11/15 00:07:34;;;;;;;49.60;18.10;;;;;;;5.00;100.00;101925.00;5017298;28;20176;-74
2021/11/15 00:10:00;;;;;;;51.83;18.20;;;;;;;4.98;100.00;101932.56;5017517;28;20600;-74
2021/11/15 00:12:25;;;;;;;42.13;15.97;;;;;;;4.99;100.00;101917.94;5018741;28;20535;-76
2021/11/15 00:14:51;;;;;;;36.80;14.00;;;;;;;4.99;100.00;101926.91;5018212;28;20668;-73
2021/11/15 00:17:17;;;;;;;38.53;15.00;;;;;;;4.99;100.00;101926.06;5017362;28;20204;-74
2021/11/15 00:19:43;;;;;;;42.87;17.03;;;;;;;4.99;100.00;101913.34;5017129;28;20168;-72
2021/11/15 00:22:08;;;;;;;52.40;19.00;;;;;;;4.99;100.00;101918.78;5017086;28;20173;-73
2021/11/15 00:24:33;;;;;;;47.77;16.93;;;;;;;4.97;100.00;101915.47;5016718;28;20197;-73
2021/11/15 00:26:59;;;;;;;64.30;19.80;;;;;;;4.96;100.00;101916.53;5017004;28;20231;-73
2021/11/15 00:29:24;;;;;;;60.70;20.97;;;;;;;4.92;100.00;101918.09;5016980;28;20187;-74
2021/11/15 00:31:49;;;;;;;49.33;18.47;;;;;;;4.90;100.00;101914.78;5025456;28;20191;-74
2021/11/15 00:34:16;;;;;;;65.23;21.97;;;;;;;4.89;100.00;101917.72;5036564;28;20187;-74
2021/11/15 00:36:41;;;;;;;43.67;16.30;;;;;;;4.95;100.00;101919.50;5036703;28;20176;-74
2021/11/15 00:39:07;;;;;;;48.30;18.27;;;;;;;4.90;100.00;101913.94;5036688;28;20686;-73
2021/11/15 00:41:32;;;;;;;52.10;18.13;;;;;;;4.83;100.00;101913.25;5034543;28;20261;-76
2021/11/15 00:43:58;;;;;;;60.73;18.33;;;;;;;4.84;100.00;101918.44;5033216;28;20172;-75
2021/11/15 00:46:23;;;;;;;48.87;18.33;;;;;;;4.85;100.00;101927.38;5033250;28;20696;-77
2021/11/15 00:48:55;;;;;;;52.43;17.27;;;;;;;4.86;100.00;101926.31;5032505;28;20175;-76
2021/11/15 00:51:21;;;;;;;59.30;19.40;;;;;;;4.84;100.00;101925.75;5033553;28;20160;-74
2021/11/15 00:53:47;;;;;;;59.87;19.67;;;;;;;4.83;100.00;101926.81;5033079;28;20176;-77
2021/11/15 00:56:12;;;;;;;62.90;18.50;;;;;;;4.79;100.00;101923.75;5033388;28;20241;-75
2021/11/15 00:58:38;;;;;;;61.47;18.60;;;;;;;4.82;100.00;101927.88;5033554;28;20187;-73
2021/11/15 01:01:03;;;;;;;71.00;20.87;;;;;;;4.80;100.00;101933.50;5031764;28;20624;-74
2021/11/15 01:03:28;;;;;;;55.33;17.80;;;;;;;4.78;100.00;101941.06;5031735;28;20179;-74
2021/11/15 01:05:54;;;;;;;61.80;19.20;;;;;;;4.76;100.00;101932.31;5032761;28;20215;-74
2021/11/15 01:08:19;;;;;;;49.87;16.77;;;;;;;4.77;100.00;101936.66;5033499;28;20591;-78
2021/11/15 01:10:47;;;;;;;71.33;20.23;;;;;;;4.72;100.00;101931.97;5033419;28;20623;-76
2021/11/15 01:13:13;;;;;;;65.90;17.93;;;;;;;4.71;100.00;101927.63;5033114;28;20267;-73
2021/11/15 01:15:39;;;;;;;64.57;17.73;;;;;;;4.73;100.00;101925.50;5032710;28;20726;-73
2021/11/15 01:18:06;;;;;;;49.77;15.53;;;;;;;4.69;100.00;101934.34;5032861;28;20168;-73
2021/11/15 01:20:32;;;;;;;38.70;12.97;;;;;;;4.69;100.00;101934.34;5032905;28;20168;-74
2021/11/15 01:22:58;;;;;;;57.50;16.33;;;;;;;4.65;100.00;101925.03;5032953;28;20674;-73
2021/11/15 01:25:25;;;;;;;39.83;12.50;;;;;;;4.64;100.00;101926.94;5032180;28;20294;-74
2021/11/15 01:27:50;;;;;;;39.57;12.30;;;;;;;4.65;100.00;101912.34;5032699;28;20176;-74
2021/11/15 01:30:18;;;;;;;45.77;15.93;;;;;;;4.66;100.00;101922.09;5032822;28;20266;-74
2021/11/15 01:32:44;;;;;;;46.13;14.00;;;;;;;4.63;100.00;101921.72;5031402;28;20184;-73
2021/11/15 01:35:10;;;;;;;38.40;13.90;;;;;;;4.64;100.00;101910.69;5032428;28;20207;-74
2021/11/15 01:37:38;;;;;;;43.80;12.60;;;;;;;4.67;100.00;101917.50;5032857;28;20230;-73
2021/11/15 01:40:05;;;;;;;32.97;13.43;;;;;;;4.62;100.00;101915.50;5032381;28;20620;-73
2021/11/15 01:42:30;;;;;;;46.40;13.83;;;;;;;4.63;100.00;101909.03;5032337;28;20179;-74
2021/11/15 01:44:56;;;;;;;42.07;13.30;;;;;;;4.62;100.00;101910.06;5032015;28;20215;-74
2021/11/15 01:47:23;;;;;;;41.23;13.63;;;;;;;4.66;100.00;101910.44;5032385;28;20259;-74
2021/11/15 01:49:49;;;;;;;31.80;12.20;;;;;;;4.63;100.00;101917.16;5032300;28;20176;-73
2021/11/15 01:52:15;;;;;;;34.53;11.47;;;;;;;4.65;100.00;101912.34;5032322;28;20183;-73
2021/11/15 01:54:40;;;;;;;33.57;13.13;;;;;;;4.67;100.00;101918.34;5031622;28;20652;-74
2021/11/15 01:57:06;;;;;;;32.77;12.40;;;;;;;4.66;100.00;101913.16;5030106;28;20180;-76
2021/11/15 01:59:31;;;;;;;29.03;11.13;;;;;;;4.64;100.00;101913.41;5012377;28;20187;-76
2021/11/15 02:01:57;;;;;;;39.47;12.43;;;;;;;4.59;100.00;101901.59;5012420;28;20176;-76
2021/11/15 02:04:23;;;;;;;40.47;12.33;;;;;;;4.58;100.00;101905.38;5011474;28;20196;-74
2021/11/15 02:06:48;;;;;;;39.53;10.87;;;;;;;4.57;100.00;101895.63;5010912;28;20181;-74
2021/11/15 02:09:14;;;;;;;29.53;12.17;;;;;;;4.54;100.00;101888.78;5012440;28;20256;-75
2021/11/15 02:11:39;;;;;;;49.57;13.87;;;;;;;4.52;100.00;101885.50;5012235;28;20637;-75
2021/11/15 02:14:05;;;;;;;42.80;12.43;;;;;;;4.57;100.00;101882.06;5012198;28;20176;-76
2021/11/15 02:16:31;;;;;;;38.63;13.03;;;;;;;4.57;100.00;101885.59;5012114;28;20184;-74
2021/11/15 02:18:57;;;;;;;46.87;15.07;;;;;;;4.56;100.00;101889.38;5012059;28;20180;-75
2021/11/15 02:21:23;;;;;;;37.23;12.30;;;;;;;4.55;100.00;101879.63;5011850;28;20734;-74
2021/11/15 02:23:49;;;;;;;56.20;15.70;;;;;;;4.54;100.00;101877.16;5011736;28;20200;-74
2021/11/15 02:26:18;;;;;;;41.13;13.13;;;;;;;4.56;100.00;101881.25;5011868;28;20282;-74
2021/11/15 02:28:46;;;;;;;47.80;15.20;;;;;;;4.54;100.00;101869.84;5011843;28;20259;-75
2021/11/15 02:31:16;;;;;;;40.10;13.57;;;;;;;4.57;100.00;101865.84;5011690;28;20645;-74
2021/11/15 02:33:42;;;;;;;45.03;14.47;;;;;;;4.59;100.00;101861.84;5011491;28;20185;-74
2021/11/15 02:36:10;;;;;;;37.67;13.60;;;;;;;4.59;100.00;101869.94;5011657;28;20447;-74
2021/11/15 02:38:36;;;;;;;35.30;12.17;;;;;;;4.56;100.00;101859.59;5011657;28;20660;-75
2021/11/15 02:41:02;;;;;;;43.30;15.37;;;;;;;4.56;100.00;101869.59;5011710;28;20183;-74
2021/11/15 02:43:28;;;;;;;49.43;15.27;;;;;;;4.58;100.00;101862.06;5011688;28;20265;-74
2021/11/15 02:45:54;;;;;;;42.80;15.30;;;;;;;4.58;100.00;101862.91;5011172;28;20204;-74
2021/11/15 02:48:21;;;;;;;38.10;15.77;;;;;;;4.59;100.00;101861.00;5011609;28;20183;-73
2021/11/15 02:50:47;;;;;;;49.17;16.37;;;;;;;4.60;100.00;101865.38;5011500;28;20578;-75
2021/11/15 02:53:13;;;;;;;52.97;19.13;;;;;;;4.60;100.00;101863.47;5010200;28;20184;-75
2021/11/15 02:55:38;;;;;;;58.30;18.83;;;;;;;4.59;100.00;101864.53;5011221;28;20176;-76
2021/11/15 02:58:06;;;;;;;48.80;18.70;;;;;;;4.59;100.00;101867.25;5011405;28;20588;-74
2021/11/15 03:00:42;;;;;;;54.20;17.17;;;;;;;4.63;100.00;101864.88;5011229;28;20645;-74
2021/11/15 03:03:10;;;;;;;57.30;18.60;;;;;;;4.60;100.00;101866.19;5010872;28;20659;-75
2021/11/15 03:05:39;;;;;;;56.63;19.30;;;;;;;4.61;100.00;101865.13;5010256;28;20224;-74
2021/11/15 03:08:06;;;;;;;48.90;18.20;;;;;;;4.61;100.00;101865.13;5009886;28;20188;-74
2021/11/15 03:10:32;;;;;;;58.93;19.33;;;;;;;4.65;100.00;101866.31;5011184;28;20207;-75
2021/11/15 03:12:59;;;;;;;54.93;18.63;;;;;;;4.63;100.00;101867.59;5011519;28;20212;-74
2021/11/15 03:15:27;;;;;;;69.37;19.73;;;;;;;4.65;100.00;101865.50;5012638;28;20184;-72
2021/11/15 03:17:56;;;;;;;56.83;18.83;;;;;;;4.66;100.00;101859.03;5017791;28;20185;-73
2021/11/15 03:20:25;;;;;;;45.60;18.67;;;;;;;4.67;100.00;101864.19;5015924;28;20176;-74
2021/11/15 03:22:51;;;;;;;57.60;20.57;;;;;;;4.66;100.00;101856.31;5011398;28;20264;-74
2021/11/15 03:25:16;;;;;;;60.53;19.50;;;;;;;4.65;100.00;101852.78;5010930;28;20350;-74
2021/11/15 03:27:42;;;;;;;61.20;22.10;;;;;;;4.67;100.00;101856.06;5011075;28;20652;-73
2021/11/15 03:30:09;;;;;;;75.73;21.03;;;;;;;4.66;100.00;101857.13;5011687;28;20168;-73
2021/11/15 03:32:35;;;;;;;67.87;24.33;;;;;;;4.69;100.00;101859.38;5010905;28;20223;-75
2021/11/15 03:35:02;;;;;;;59.83;20.90;;;;;;;4.70;100.00;101858.31;5015151;28;20302;-73
2021/11/15 03:37:28;;;;;;;55.73;19.77;;;;;;;4.68;100.00;101857.72;5030670;28;20176;-73
2021/11/15 03:39:54;;;;;;;63.93;20.63;;;;;;;4.67;100.00;101864.19;5030694;28;20171;-75
2021/11/15 03:42:19;;;;;;;60.70;18.57;;;;;;;4.68;100.00;101865.03;5030587;28;20226;-74
2021/11/15 03:44:44;;;;;;;62.97;22.83;;;;;;;4.66;100.00;101864.44;5030359;28;20200;-74
2021/11/15 03:47:10;;;;;;;51.33;18.20;;;;;;;4.68;100.00;101863.13;5030628;28;20820;-74
2021/11/15 03:49:35;;;;;;;72.97;23.50;;;;;;;4.66;100.00;101861.72;5030765;28;20176;-73
2021/11/15 03:52:00;;;;;;;51.80;20.83;;;;;;;4.65;100.00;101866.31;5030566;28;20176;-73
2021/11/15 03:54:26;;;;;;;63.70;23.30;;;;;;;4.66;100.00;101870.66;5030335;28;20200;-73
2021/11/15 03:56:51;;;;;;;59.17;22.03;;;;;;;4.66;100.00;101869.84;5030754;28;20690;-74
2021/11/15 03:59:16;;;;;;;60.10;21.33;;;;;;;4.65;100.00;101879.84;5030569;28;20172;-74
2021/11/15 04:01:43;;;;;;;39.13;14.30;;;;;;;4.66;100.00;101881.50;5030366;28;20179;-74
2021/11/15 04:04:16;;;;;;;36.93;15.00;;;;;;;4.61;100.00;101875.94;5029828;28;20176;-73
2021/11/15 04:06:48;;;;;;;37.47;15.13;;;;;;;4.61;100.00;101884.06;5030328;28;20259;-74
2021/11/15 04:09:14;;;;;;;43.33;17.90;;;;;;;4.57;100.00;101880.19;5030344;28;20263;-74
2021/11/15 04:11:39;;;;;;;43.37;16.90;;;;;;;4.58;100.00;101878.31;5029256;28;20279;-73
2021/11/15 04:14:08;;;;;;;29.57;15.73;;;;;;;4.54;100.00;101866.31;5028833;28;20180;-73
2021/11/15 04:16:33;;;;;;;37.10;16.87;;;;;;;4.51;100.00;101874.91;5031769;28;20183;-73
2021/11/15 04:19:05;;;;;;;43.33;16.67;;;;;;;4.47;100.00;101874.53;5034049;28;20259;-73
2021/11/15 04:21:32;;;;;;;41.63;16.07;;;;;;;4.41;100.00;101879.03;5034029;28;20207;-74
2021/11/15 04:23:58;;;;;;;42.70;18.97;;;;;;;4.40;100.00;101866.56;5033793;28;20180;-74
2021/11/15 04:26:23;;;;;;;30.60;14.50;;;;;;;4.39;100.00;101873.03;5033741;28;20291;-74
2021/11/15 04:28:48;;;;;;;41.20;17.47;;;;;;;4.40;100.00;101860.31;5034158;28;20180;-74
2021/11/15 04:31:14;;;;;;;35.37;17.00;;;;;;;4.37;100.00;101866.22;5032525;28;20674;-74
2021/11/15 04:33:40;;;;;;;47.83;19.43;;;;;;;4.33;100.00;101862.31;5033551;28;20184;-73
2021/11/15 04:36:05;;;;;;;39.93;19.63;;;;;;;4.33;100.00;101863.13;5033484;28;20180;-74
2021/11/15 04:38:31;;;;;;;31.27;17.10;;;;;;;4.31;100.00;101861.72;5032285;28;20268;-74
2021/11/15 04:40:56;;;;;;;44.87;20.70;;;;;;;4.29;100.00;101863.84;5032335;28;20557;-74
2021/11/15 04:43:22;;;;;;;33.10;17.63;;;;;;;4.26;100.00;101861.63;5033629;28;20172;-74
2021/11/15 04:45:48;;;;;;;38.87;18.93;;;;;;;4.27;100.00;101855.13;5033248;28;20295;-74
2021/11/15 04:48:14;;;;;;;43.50;18.23;;;;;;;4.24;100.00;101858.31;5033529;28;20172;-74
2021/11/15 04:50:39;;;;;;;40.67;18.47;;;;;;;4.24;100.00;101855.63;5032010;28;20179;-74
2021/11/15 04:53:05;;;;;;;40.40;19.23;;;;;;;4.21;100.00;101862.31;5033753;28;20528;-73
2021/11/15 04:55:31;;;;;;;35.63;16.47;;;;;;;4.25;100.00;101854.56;5033152;28;20171;-74
2021/11/15 04:57:57;;;;;;;31.63;17.93;;;;;;;4.24;100.00;101850.22;5033171;28;20172;-73
2021/11/15 05:00:30;;;;;;;35.80;16.97;;;;;;;4.24;100.00;101844.78;5033044;28;20280;-74
2021/11/15 05:02:56;;;;;;;41.80;16.27;;;;;;;4.24;100.00;101842.91;5032890;28;20678;-73
2021/11/15 05:05:22;;;;;;;28.87;15.20;;;;;;;4.23;100.00;101851.25;5032849;28;20211;-74
2021/11/15 05:07:48;;;;;;;36.83;18.50;;;;;;;4.21;100.00;101842.56;5033171;28;20275;-74
2021/11/15 05:10:15;;;;;;;36.97;19.53;;;;;;;4.19;100.00;101840.06;5033316;28;20179;-74
2021/11/15 05:12:40;;;;;;;32.90;16.93;;;;;;;4.18;100.00;101841.94;5033334;28;20254;-74
2021/11/15 05:15:11;;;;;;;28.87;15.80;;;;;;;4.22;100.00;101845.03;5032790;28;20176;-74
2021/11/15 05:17:38;;;;;;;36.83;15.60;;;;;;;4.21;100.00;101846.09;5033606;28;20168;-74
2021/11/15 05:20:05;;;;;;;22.33;13.37;;;;;;;4.21;100.00;101846.09;5033016;28;20176;-74
2021/11/15 05:22:30;;;;;;;31.60;14.57;;;;;;;4.19;100.00;101837.38;5032847;28;20258;-74
2021/11/15 05:24:56;;;;;;;23.80;13.50;;;;;;;4.20;100.00;101839.03;5032602;28;20739;-73
2021/11/15 05:27:21;;;;;;;29.93;14.37;;;;;;;4.20;100.00;101838.22;5032430;28;20599;-74
2021/11/15 05:29:47;;;;;;;29.53;15.43;;;;;;;4.21;100.00;101846.09;5031032;28;20184;-73
2021/11/15 05:32:12;;;;;;;30.53;15.93;;;;;;;4.19;100.00;101842.78;5031382;28;20184;-74
2021/11/15 05:34:37;;;;;;;37.80;17.33;;;;;;;4.20;100.00;101839.03;5031032;28;20188;-74
2021/11/15 05:37:03;;;;;;;30.60;16.20;;;;;;;4.18;100.00;101846.53;5032498;28;20190;-73
2021/11/15 05:39:29;;;;;;;36.23;17.20;;;;;;;4.17;100.00;101840.31;5031205;28;20450;-73
2021/11/15 05:41:57;;;;;;;29.13;16.30;;;;;;;4.18;100.00;101841.94;5032486;28;20203;-74
2021/11/15 05:44:22;;;;;;;21.97;14.10;;;;;;;4.18;100.00;101847.34;5032566;28;20179;-74
2021/11/15 05:46:48;;;;;;;22.43;15.80;;;;;;;4.18;100.00;101851.94;5032410;28;20172;-74
2021/11/15 05:49:13;;;;;;;30.53;15.60;;;;;;;4.21;100.00;101850.69;5032325;28;20175;-74
2021/11/15 05:51:38;;;;;;;22.83;12.90;;;;;;;4.22;100.00;101847.75;5032306;28;20180;-73
2021/11/15 05:54:04;;;;;;;24.03;15.07;;;;;;;4.20;100.00;101849.03;5032128;28;20172;-73
2021/11/15 05:56:29;;;;;;;33.07;17.30;;;;;;;4.21;100.00;101856.09;5032568;28;20263;-74
2021/11/15 05:58:54;;;;;;;36.27;14.33;;;;;;;4.20;100.00;101860.69;5032195;28;20172;-73
2021/11/15 06:01:20;;;;;;;34.57;17.67;;;;;;;4.18;100.00;101857.34;5032132;28;20198;-74
2021/11/15 06:03:45;;;;;;;26.27;16.73;;;;;;;4.20;100.00;101866.09;5031963;28;20683;-73
2021/11/15 06:06:11;;;;;;;30.07;16.37;;;;;;;4.18;100.00;101863.59;5031799;28;20747;-73
2021/11/15 06:08:37;;;;;;;40.93;19.00;;;;;;;4.16;100.00;101860.28;5032018;28;20176;-74
2021/11/15 06:11:03;;;;;;;34.80;15.80;;;;;;;4.21;100.00;101866.91;5032143;28;20535;-74
2021/11/15 06:13:28;;;;;;;38.60;19.23;;;;;;;4.19;100.00;101867.13;5032127;28;20172;-74
2021/11/15 06:15:54;;;;;;;34.37;14.70;;;;;;;4.18;100.00;101863.59;5031943;28;20255;-74
2021/11/15 06:18:19;;;;;;;25.37;14.73;;;;;;;4.19;100.00;101864.41;5031775;28;20172;-74
2021/11/15 06:20:45;;;;;;;34.43;16.53;;;;;;;4.20;100.00;101866.09;5031772;28;20635;-74
2021/11/15 06:23:10;;;;;;;31.13;14.47;;;;;;;4.21;100.00;101864.19;5032007;28;20179;-74
2021/11/15 06:25:36;;;;;;;30.97;16.17;;;;;;;4.21;100.00;101866.91;5029964;28;20203;-74
2021/11/15 06:28:02;;;;;;;33.57;15.73;;;;;;;4.22;100.00;101860.44;5031548;28;20251;-74
2021/11/15 06:30:28;;;;;;;26.43;16.50;;;;;;;4.19;100.00;101864.41;5031512;28;20259;-74
2021/11/15 06:32:53;;;;;;;29.17;14.73;;;;;;;4.22;100.00;101858.56;5031548;28;20209;-74
2021/11/15 06:35:19;;;;;;;25.93;14.90;;;;;;;4.20;100.00;101855.25;5031174;28;20218;-74
2021/11/15 06:37:45;;;;;;;38.27;17.07;;;;;;;4.24;100.00;101861.03;5031433;28;20179;-74
2021/11/15 06:40:12;;;;;;;22.87;13.60;;;;;;;4.20;100.00;101868.78;5030751;28;20235;-74
2021/11/15 06:42:38;;;;;;;24.30;15.63;;;;;;;4.22;100.00;101868.56;5031495;28;20241;-74
2021/11/15 06:45:05;;;;;;;39.87;16.97;;;;;;;4.21;100.00;101872.31;5030984;28;20722;-74
2021/11/15 06:47:33;;;;;;;28.70;15.90;;;;;;;4.21;100.00;101873.13;5031196;28;20702;-74
2021/11/15 06:50:00;;;;;;;28.00;15.77;;;;;;;4.22;100.00;101879.38;5031613;28;20176;-74
2021/11/15 06:52:26;;;;;;;26.80;15.57;;;;;;;4.21;100.00;101875.84;5031165;28;20627;-74
2021/11/15 06:54:51;;;;;;;36.03;15.70;;;;;;;4.23;100.00;101876.44;5030761;28;20187;-75
2021/11/15 06:57:17;;;;;;;27.70;15.57;;;;;;;4.25;100.00;101876.19;5031348;28;20176;-73
2021/11/15 06:59:43;;;;;;;25.90;14.73;;;;;;;4.24;100.00;101877.25;5030952;28;20179;-74
2021/11/15 07:02:08;;;;;;;29.53;16.17;;;;;;;4.26;100.00;101875.13;5031114;28;20172;-73
2021/11/15 07:04:34;;;;;;;28.83;15.80;;;;;;;4.29;100.00;101880.06;5030468;28;20270;-73
2021/11/15 07:07:00;;;;;;;32.57;16.53;;;;;;;4.25;100.00;101876.19;5030983;28;20259;-75
2021/11/15 07:09:25;;;;;;;29.33;16.13;;;;;;;4.29;100.00;101878.19;5030934;28;20180;-74
2021/11/15 07:11:51;;;;;;;27.23;15.43;;;;;;;4.30;100.00;101882.53;5030768;28;20168;-74
2021/11/15 07:14:17;;;;;;;27.33;13.67;;;;;;;4.32;100.00;101885.00;5030470;28;20628;-74
2021/11/15 07:16:43;;;;;;;27.67;16.10;;;;;;;4.32;100.00;101885.00;5030878;28;20186;-73
2021/11/15 07:19:08;;;;;;;21.60;13.03;;;;;;;4.32;100.00;101876.88;5030712;28;20182;-74
2021/11/15 07:21:34;;;;;;;20.00;13.87;;;;;;;4.34;100.00;101882.88;5030692;28;20656;-74
2021/11/15 07:23:59;;;;;;;23.83;14.10;;;;;;;4.34;100.00;101899.13;5030433;28;20176;-74
2021/11/15 07:26:25;;;;;;;21.50;14.07;;;;;;;4.33;100.00;101900.19;5030672;28;20203;-75
2021/11/15 07:28:52;;;;;;;30.63;14.67;;;;;;;4.36;100.00;101897.03;5030568;28;20259;-73
2021/11/15 07:31:17;;;;;;;22.90;14.43;;;;;;;4.35;100.00;101890.78;5029343;28;20229;-74
2021/11/15 07:33:43;;;;;;;23.03;13.40;;;;;;;4.38;100.00;101894.91;5020213;28;20250;-73
2021/11/15 07:36:09;;;;;;;25.80;15.07;;;;;;;4.37;100.00;101896.78;5013488;28;20633;-74
2021/11/15 07:38:35;;;;;;;31.17;14.13;;;;;;;4.38;100.00;101892.22;5010676;28;20259;-75
2021/11/15 07:41:01;;;;;;;23.13;13.87;;;;;;;4.37;100.00;101893.25;5010891;28;20195;-74
2021/11/15 07:43:26;;;;;;;25.40;13.37;;;;;;;4.41;100.00;101886.31;5010819;28;20176;-75
2021/11/15 07:45:52;;;;;;;26.90;15.77;;;;;;;4.40;100.00;101890.09;5010434;28;20199;-74
2021/11/15 07:48:17;;;;;;;19.17;13.27;;;;;;;4.41;100.00;101884.44;5010672;28;20176;-74
2021/11/15 07:50:44;;;;;;;21.80;13.07;;;;;;;4.37;100.00;101894.09;5010711;28;20180;-75
2021/11/15 07:53:10;;;;;;;28.10;13.90;;;;;;;4.38;100.00;101889.50;5014697;28;20184;-75
2021/11/15 07:55:36;;;;;;;25.20;15.17;;;;;;;4.38;100.00;101894.91;5014397;28;20172;-71
2021/11/15 07:58:04;;;;;;;27.23;12.43;;;;;;;4.40;100.00;101887.38;5014835;28;20187;-72
2021/11/15 08:00:29;;;;;;;31.37;14.30;;;;;;;4.39;100.00;101899.25;5027788;28;20192;-72
2021/11/15 08:02:55;;;;;;;23.20;15.33;;;;;;;4.40;100.00;101900.91;5033944;28;20179;-71
2021/11/15 08:05:21;;;;;;;27.07;15.00;;;;;;;4.40;100.00;101900.91;5033808;28;20230;-72
2021/11/15 08:07:47;;;;;;;29.27;14.97;;;;;;;4.41;100.00;101897.97;5034263;28;20206;-72
2021/11/15 08:10:15;;;;;;;27.63;15.70;;;;;;;4.41;100.00;101895.25;5034092;28;20242;-72
2021/11/15 08:12:43;;;;;;;24.83;13.27;;;;;;;4.44;100.00;101894.78;5033995;28;20702;-72
2021/11/15 08:15:13;;;;;;;23.07;13.73;;;;;;;4.42;100.00;101890.66;5033837;28;20632;-71
2021/11/15 08:17:40;;;;;;;29.43;14.37;;;;;;;4.43;100.00;101887.72;5034000;28;20255;-71
2021/11/15 08:20:10;;;;;;;28.53;14.83;;;;;;;4.41;100.00;101886.31;5034023;28;20180;-71
2021/11/15 08:22:36;;;;;;;28.97;15.73;;;;;;;4.41;100.00;101889.84;5034180;28;20175;-71
2021/11/15 08:25:26;;;;;;;31.87;15.20;;;;;;;4.44;100.00;101883.13;5034053;28;20218;-71
2021/11/15 08:27:59;;;;;;;28.13;14.20;;;;;;;4.43;100.00;101879.59;5032740;28;20235;-71
2021/11/15 08:30:25;;;;;;;36.37;16.23;;;;;;;4.45;100.00;101896.44;5033853;28;20180;-71
2021/11/15 08:32:51;;;;;;;37.87;15.40;;;;;;;4.44;100.00;101888.53;5033882;28;20602;-72
2021/11/15 08:35:22;;;;;;;32.43;15.87;;;;;;;4.47;100.00;101888.06;5033820;28;20179;-72
2021/11/15 08:38:03;;;;;;;31.23;15.63;;;;;;;4.48;100.00;101890.56;5034104;28;20616;-71
2021/11/15 08:40:28;;;;;;;33.90;15.87;;;;;;;4.52;100.00;101896.31;5032372;28;20182;-72
2021/11/15 08:42:54;;;;;;;35.50;16.37;;;;;;;4.50;100.00;101893.03;5016877;28;20181;-76
2021/11/15 08:45:20;;;;;;;32.90;15.10;;;;;;;4.50;100.00;101894.91;5013428;28;20687;-75
2021/11/15 08:47:45;;;;;;;33.27;15.00;;;;;;;4.53;100.00;101891.75;5013831;28;20172;-78
2021/11/15 08:50:11;;;;;;;33.23;16.73;;;;;;;4.53;100.00;101892.56;5025929;28;20222;-78
2021/11/15 08:52:36;;;;;;;26.93;13.63;;;;;;;4.52;100.00;101885.50;5021304;28;20177;-77
2021/11/15 08:55:02;;;;;;;30.20;14.20;;;;;;;4.50;100.00;101881.38;5027503;28;20180;-74
2021/11/15 08:57:27;;;;;;;32.17;16.57;;;;;;;4.51;100.00;101891.16;5033025;28;20258;-79
2021/11/15 08:59:55;;;;;;;23.97;14.50;;;;;;;4.51;100.00;101883.03;5033088;28;20267;-75
2021/11/15 09:02:20;;;;;;;26.63;16.60;;;;;;;4.53;100.00;101879.03;5032709;28;20210;-77
2021/11/15 09:04:46;;;;;;;28.60;16.63;;;;;;;4.51;100.00;101877.63;5031974;28;20564;-73
2021/11/15 09:07:11;;;;;;;23.27;14.73;;;;;;;4.50;100.00;101879.50;5033054;28;20179;-73
2021/11/15 09:09:38;;;;;;;29.13;13.03;;;;;;;4.57;100.00;101876.66;5033249;28;20176;-71
2021/11/15 09:12:06;;;;;;;32.13;15.23;;;;;;;4.53;100.00;101872.78;5033117;28;20664;-72
2021/11/15 09:14:31;;;;;;;23.93;12.97;;;;;;;4.52;100.00;101879.28;5033106;28;20533;-72
2021/11/15 09:16:57;;;;;;;29.63;16.10;;;;;;;4.53;100.00;101876.31;5032928;28;20183;-72
2021/11/15 09:19:22;;;;;;;27.80;14.20;;;;;;;4.54;100.00;101883.38;5019539;28;20195;-73
2021/11/15 09:21:49;;;;;;;25.23;13.50;;;;;;;4.56;100.00;101878.56;5012837;28;20272;-72
2021/11/15 09:24:15;;;;;;;28.43;15.40;;;;;;;4.58;100.00;101875.59;5012233;28;20268;-72
2021/11/15 09:26:41;;;;;;;22.80;14.60;;;;;;;4.62;100.00;101876.78;5010165;28;20419;-72
2021/11/15 09:29:07;;;;;;;29.67;14.53;;;;;;;4.62;100.00;101880.31;5012116;28;20235;-77
2021/11/15 09:31:34;;;;;;;27.67;15.17;;;;;;;4.58;100.00;101871.00;5012290;28;20547;-76
2021/11/15 09:34:00;;;;;;;29.73;15.67;;;;;;;4.57;100.00;101876.66;5010805;28;20557;-72
2021/11/15 09:36:25;;;;;;;32.83;15.20;;;;;;;4.63;100.00;101884.69;5010409;28;20207;-77
2021/11/15 09:38:53;;;;;;;17.30;12.93;;;;;;;4.67;100.00;101891.25;5011246;28;20176;-74
2021/11/15 09:41:19;;;;;;;19.77;12.00;;;;;;;4.62;100.00;101888.41;5011994;28;20175;-74
2021/11/15 09:43:44;;;;;;;25.90;14.77;;;;;;;4.66;100.00;101886.91;5012018;28;20570;-73
2021/11/15 09:46:12;;;;;;;22.97;15.20;;;;;;;4.63;100.00;101892.81;5012305;28;20215;-74
2021/11/15 09:48:44;;;;;;;30.60;13.90;;;;;;;4.69;100.00;101885.59;5012303;28;20181;-74
2021/11/15 09:51:10;;;;;;;36.27;16.77;;;;;;;4.71;100.00;101888.91;5012494;28;20176;-74
2021/11/15 09:53:36;;;;;;;29.53;15.70;;;;;;;4.71;100.00;101895.13;5012019;28;20226;-77
2021/11/15 09:56:04;;;;;;;27.80;14.30;;;;;;;4.72;100.00;101887.84;5012021;28;20179;-73
2021/11/15 09:58:29;;;;;;;25.87;13.87;;;;;;;4.75;100.00;101884.66;5007956;28;20227;-73
2021/11/15 10:00:55;;;;;;;23.40;13.77;;;;;;;4.76;100.00;101889.81;5011830;28;20172;-72
2021/11/15 10:03:21;;;;;;;27.30;14.77;;;;;;;4.78;100.00;101890.44;5011076;28;20316;-73
2021/11/15 10:05:48;;;;;;;25.73;12.43;;;;;;;4.77;100.00;101885.22;5011640;28;20855;-75
2021/11/15 10:08:13;;;;;;;24.90;14.10;;;;;;;4.74;100.00;101874.88;5011950;28;20181;-73
2021/11/15 10:10:44;;;;;;;23.57;13.47;;;;;;;4.74;100.00;101878.41;5011943;28;20187;-73
2021/11/15 10:13:30;;;;;;;27.17;13.00;;;;;;;4.79;100.00;101869.59;5012106;28;20299;-75
2021/11/15 10:15:58;;;;;;;33.70;15.23;;;;;;;4.77;100.00;101877.97;5011370;28;20659;-77
2021/11/15 10:18:51;;;;;;;28.47;14.73;;;;;;;4.81;100.00;101866.66;5013798;28;20569;-74
2021/11/15 10:21:26;;;;;;;26.27;14.70;;;;;;;4.82;100.00;101873.72;5015616;28;20181;-75
2021/11/15 10:24:00;;;;;;;19.80;13.67;;;;;;;4.83;100.00;101859.13;5010350;28;20183;-78
2021/11/15 10:26:37;;;;;;;24.03;14.37;;;;;;;4.83;100.00;101857.22;5012945;28;20261;-74
2021/11/15 10:29:14;;;;;;;22.90;13.23;;;;;;;4.85;100.00;101867.81;5011799;28;20640;-74
2021/11/15 10:32:02;;;;;;;26.37;14.47;;;;;;;4.88;100.00;101861.91;4992305;28;20181;-74
2021/11/15 10:34:46;;;;;;;21.93;12.57;;;;;;;4.92;100.00;101865.78;4991900;28;20220;-74
2021/11/15 10:37:22;;;;;;;22.60;14.10;;;;;;;4.89;100.00;101864.38;4992095;28;20192;-75
2021/11/15 10:40:04;;;;;;;23.63;14.10;;;;;;;4.90;100.00;101857.91;4992154;28;20542;-74
2021/11/15 10:42:33;;;;;;;24.67;15.57;;;;;;;4.92;100.00;101866.63;4992099;28;20185;-74
2021/11/15 10:45:17;;;;;;;20.80;13.53;;;;;;;4.96;100.00;101859.66;4992028;28;20212;-75
2021/11/15 10:47:45;;;;;;;20.07;13.40;;;;;;;5.02;100.00;101868.72;5003497;28;20168;-74
2021/11/15 10:50:23;;;;;;;21.40;14.27;;;;;;;5.01;100.00;101867.91;5011195;28;20172;-76
2021/11/15 10:53:02;;;;;;;17.17;12.90;;;;;;;5.03;100.00;101871.19;5010268;28;20184;-75
2021/11/15 10:55:32;;;;;;;19.00;14.50;;;;;;;5.05;100.00;101862.81;5009344;28;20211;-75
2021/11/15 10:57:58;;;;;;;21.67;14.57;;;;;;;5.07;100.00;101866.13;5011376;28;20264;-75
2021/11/15 11:00:25;;;;;;;23.43;14.43;;;;;;;5.07;100.00;101864.25;5011405;28;20263;-74
2021/11/15 11:03:05;;;;;;;27.73;15.73;;;;;;;5.10;100.00;101849.41;5011332;28;20183;-75
2021/11/15 11:05:31;;;;;;;22.93;13.33;;;;;;;5.11;100.00;101848.31;5011022;28;20216;-74
2021/11/15 11:08:05;;;;;;;27.70;15.70;;;;;;;5.09;100.00;101839.63;5011264;28;20705;-75